createdAt,value
2022-11-25T00:01:27.362Z,100417.79
2022-11-25T00:03:56.771Z,100422.10
2022-11-25T00:06:29.879Z,100420.84
2022-11-25T00:09:04.063Z,100417.99
2022-11-25T00:11:34.295Z,100419.23
2022-11-25T00:14:02.117Z,100424.59
2022-11-25T00:16:29.895Z,100432.41
2022-11-25T00:18:58.589Z,100433.77
2022-11-25T00:21:28.889Z,100434.98
2022-11-25T00:24:02.597Z,100433.92
2022-11-25T00:26:33.073Z,100435.02
2022-11-25T00:29:04.122Z,100444.15
2022-11-25T00:31:34.533Z,100444.80
2022-11-25T00:34:03.278Z,100446.95
2022-11-25T00:36:33.966Z,100446.31
2022-11-25T00:39:09.505Z,100442.34
2022-11-25T00:41:56.773Z,100448.41
2022-11-25T00:44:37.847Z,100446.77
2022-11-25T00:47:06.402Z,100447.84
2022-11-25T00:49:34.323Z,100444.80
2022-11-25T00:52:02.275Z,100447.52
2022-11-25T00:54:30.102Z,100450.66
2022-11-25T00:56:58.989Z,100450.83
2022-11-25T00:59:28.815Z,100457.86
2022-11-25T01:01:57.129Z,100459.07
2022-11-25T01:04:25.339Z,100461.55
2022-11-25T01:06:56.842Z,100459.86
2022-11-25T01:09:24.590Z,100458.61
2022-11-25T01:11:53.070Z,100458.77
2022-11-25T01:14:22.375Z,100466.02
2022-11-25T01:16:52.569Z,100466.91
2022-11-25T01:19:20.924Z,100466.38
2022-11-25T01:21:48.829Z,100466.42
2022-11-25T01:24:17.299Z,100465.52
2022-11-25T01:26:46.011Z,100468.33
2022-11-25T01:29:17.009Z,100463.34
2022-11-25T01:31:46.177Z,100463.90
2022-11-25T01:34:25.068Z,100460.14
2022-11-25T01:36:52.838Z,100462.29
2022-11-25T01:39:25.648Z,100463.52
2022-11-25T01:41:56.312Z,100469.98
2022-11-25T01:44:27.648Z,100469.73
2022-11-25T01:47:18.765Z,100475.81
2022-11-25T01:49:55.626Z,100476.08
2022-11-25T01:52:33.965Z,100475.91
2022-11-25T01:55:22.443Z,100480.08
2022-11-25T01:57:54.433Z,100482.20
2022-11-25T02:00:25.588Z,100484.00
2022-11-25T02:02:55.502Z,100487.68
2022-11-25T02:05:34.595Z,100484.86
2022-11-25T02:08:03.591Z,100478.52
2022-11-25T02:10:34.570Z,100481.48
2022-11-25T02:13:03.689Z,100483.20
2022-11-25T02:15:34.920Z,100479.95
2022-11-25T02:18:05.603Z,100483.59
2022-11-25T02:20:33.665Z,100485.14
2022-11-25T02:27:01.260Z,100480.81
2022-11-25T02:29:28.145Z,100479.42
2022-11-25T02:31:54.510Z,100477.71
2022-11-25T02:34:20.984Z,100478.45
2022-11-25T02:36:48.918Z,100482.17
2022-11-25T02:39:18.122Z,100482.83
2022-11-25T02:41:51.719Z,100490.09
2022-11-25T02:44:18.254Z,100492.83
2022-11-25T02:46:44.749Z,100495.44
2022-11-25T02:49:11.368Z,100492.94
2022-11-25T02:51:40.886Z,100494.14
2022-11-25T02:54:09.300Z,100489.73
2022-11-25T02:56:37.375Z,100491.60
2022-11-25T02:59:04.265Z,100486.22
2022-11-25T03:01:30.920Z,100485.17
2022-11-25T03:03:57.887Z,100482.73
2022-11-25T03:06:28.373Z,100479.09
2022-11-25T03:08:55.298Z,100480.37
2022-11-25T03:11:41.971Z,100483.66
2022-11-25T03:14:08.486Z,100488.79
2022-11-25T03:16:35.083Z,100489.17
2022-11-25T03:19:03.883Z,100490.40
2022-11-25T03:21:30.677Z,100494.66
2022-11-25T03:23:57.123Z,100499.14
2022-11-25T03:26:25.291Z,100504.05
2022-11-25T03:28:52.146Z,100503.45
2022-11-25T03:31:18.808Z,100503.46
2022-11-25T03:33:45.219Z,100502.54
2022-11-25T03:36:11.930Z,100502.49
2022-11-25T03:38:38.344Z,100505.67
2022-11-25T03:41:04.977Z,100510.45
2022-11-25T03:43:32.441Z,100511.35
2022-11-25T03:45:58.792Z,100515.71
2022-11-25T03:48:25.125Z,100520.55
2022-11-25T03:50:51.691Z,100520.80
2022-11-25T03:53:18.006Z,100522.95
2022-11-25T03:55:47.277Z,100523.15
2022-11-25T03:58:13.825Z,100519.55
2022-11-25T04:00:40.206Z,100518.69
2022-11-25T04:03:06.616Z,100518.98
2022-11-25T04:05:33.003Z,100520.15
2022-11-25T04:08:02.766Z,100521.52
2022-11-25T04:10:29.863Z,100522.02
2022-11-25T04:12:58.229Z,100528.02
2022-11-25T04:15:30.760Z,100526.70
2022-11-25T04:17:57.683Z,100528.46
2022-11-25T04:20:24.401Z,100529.38
2022-11-25T04:26:24.612Z,100538.02
2022-11-25T04:28:53.099Z,100539.05
2022-11-25T04:31:21.377Z,100538.83
2022-11-25T04:33:52.585Z,100546.86
2022-11-25T04:36:21.030Z,100549.96
2022-11-25T04:38:49.039Z,100546.73
2022-11-25T04:41:18.423Z,100551.00
2022-11-25T04:43:46.377Z,100555.86
2022-11-25T04:46:17.963Z,100557.13
2022-11-25T04:48:50.730Z,100550.98
2022-11-25T04:51:18.799Z,100551.91
2022-11-25T04:53:47.566Z,100547.16
2022-11-25T04:56:18.591Z,100553.84
2022-11-25T04:59:05.729Z,100558.20
2022-11-25T05:01:33.954Z,100562.46
2022-11-25T05:04:10.207Z,100560.27
2022-11-25T05:06:37.957Z,100560.11
2022-11-25T05:09:06.576Z,100563.52
2022-11-25T05:11:35.534Z,100564.28
2022-11-25T05:14:03.552Z,100565.45
2022-11-25T05:16:31.876Z,100567.92
2022-11-25T05:19:00.030Z,100571.45
2022-11-25T05:21:28.005Z,100575.17
2022-11-25T05:23:56.132Z,100574.13
2022-11-25T05:26:24.260Z,100576.58
2022-11-25T05:28:54.576Z,100580.58
2022-11-25T05:31:22.340Z,100587.54
2022-11-25T05:33:50.824Z,100589.05
2022-11-25T05:36:19.022Z,100591.09
2022-11-25T05:38:48.317Z,100590.48
2022-11-25T05:41:21.443Z,100590.81
2022-11-25T05:43:49.321Z,100588.60
2022-11-25T05:46:17.882Z,100587.30
2022-11-25T05:48:53.310Z,100585.01
2022-11-25T05:51:22.369Z,100589.51
2022-11-25T05:53:51.000Z,100590.33
2022-11-25T05:56:19.334Z,100597.94
2022-11-25T05:59:22.525Z,100592.98
2022-11-25T06:02:05.012Z,100600.16
2022-11-25T06:04:33.592Z,100599.52
2022-11-25T06:07:01.771Z,100597.81
2022-11-25T06:09:29.939Z,100597.59
2022-11-25T06:11:57.925Z,100601.45
2022-11-25T06:14:25.949Z,100605.52
2022-11-25T06:16:53.766Z,100605.71
2022-11-25T06:19:29.048Z,100602.38
2022-11-25T06:21:56.723Z,100603.08
2022-11-25T06:24:25.618Z,100604.02
2022-11-25T06:26:57.124Z,100603.72
2022-11-25T06:29:25.016Z,100602.59
2022-11-25T06:31:52.793Z,100603.07
2022-11-25T06:34:32.454Z,100603.83
2022-11-25T06:37:01.164Z,100608.35
2022-11-25T06:39:28.844Z,100613.08
2022-11-25T06:41:56.708Z,100613.64
2022-11-25T06:44:24.388Z,100615.44
2022-11-25T06:46:52.239Z,100614.36
2022-11-25T06:49:19.949Z,100615.64
2022-11-25T06:51:49.726Z,100611.06
2022-11-25T06:54:17.332Z,100615.44
2022-11-25T06:56:45.058Z,100617.53
2022-11-25T06:59:12.845Z,100620.48
2022-11-25T07:01:40.698Z,100624.70
2022-11-25T07:04:08.451Z,100626.59
2022-11-25T07:06:36.166Z,100621.62
2022-11-25T07:09:04.679Z,100619.14
2022-11-25T07:11:35.317Z,100624.66
2022-11-25T07:14:06.351Z,100625.92
2022-11-25T07:16:34.223Z,100624.63
2022-11-25T07:19:03.183Z,100625.35
2022-11-25T07:21:32.745Z,100624.63
2022-11-25T07:24:02.687Z,100626.24
2022-11-25T07:26:33.287Z,100632.64
2022-11-25T07:29:04.264Z,100633.48
2022-11-25T07:31:34.869Z,100634.97
2022-11-25T07:34:08.199Z,100627.80
2022-11-25T07:36:36.524Z,100629.85
2022-11-25T07:39:07.877Z,100631.14
2022-11-25T07:41:35.625Z,100633.59
2022-11-25T07:44:05.772Z,100637.73
2022-11-25T07:46:47.578Z,100641.73
2022-11-25T07:49:18.517Z,100641.08
2022-11-25T07:51:48.942Z,100647.11
2022-11-25T07:54:17.466Z,100648.10
2022-11-25T07:56:45.653Z,100649.58
2022-11-25T07:59:15.692Z,100651.64
2022-11-25T08:01:44.270Z,100652.46
2022-11-25T08:04:19.494Z,100655.60
2022-11-25T08:06:49.057Z,100658.46
2022-11-25T08:09:19.824Z,100656.15
2022-11-25T08:11:49.109Z,100659.85
2022-11-25T08:14:17.023Z,100661.39
2022-11-25T08:16:45.195Z,100662.16
2022-11-25T08:19:15.714Z,100667.67
2022-11-25T08:21:43.941Z,100670.58
2022-11-25T08:24:20.678Z,100668.11
2022-11-25T08:26:48.718Z,100667.85
2022-11-25T08:29:18.212Z,100667.68
2022-11-25T08:31:46.352Z,100663.39
2022-11-25T08:34:23.436Z,100671.65
2022-11-25T08:36:52.698Z,100674.61
2022-11-25T08:39:50.690Z,100673.64
2022-11-25T08:42:09.426Z,100674.29
2022-11-25T08:44:37.394Z,100674.17
2022-11-25T08:47:05.226Z,100677.70
2022-11-25T08:49:39.148Z,100676.10
2022-11-25T08:52:09.888Z,100677.10
2022-11-25T08:54:38.158Z,100678.77
2022-11-25T08:57:06.176Z,100681.71
2022-11-25T08:59:34.071Z,100681.36
2022-11-25T09:02:02.376Z,100681.18
2022-11-25T09:04:30.132Z,100681.75
2022-11-25T09:06:57.881Z,100682.08
2022-11-25T09:09:26.115Z,100686.86
2022-11-25T09:11:54.449Z,100690.84
2022-11-25T09:14:22.407Z,100693.55
2022-11-25T09:16:50.288Z,100695.48
2022-11-25T09:19:17.944Z,100693.00
2022-11-25T09:21:45.628Z,100693.81
2022-11-25T09:27:57.482Z,100691.81
2022-11-25T09:30:26.350Z,100695.57
2022-11-25T09:32:55.485Z,100695.39
2022-11-25T09:35:25.183Z,100699.57
2022-11-25T09:37:53.249Z,100699.34
2022-11-25T09:40:40.645Z,100699.40
2022-11-25T09:43:55.779Z,100699.12
2022-11-25T09:46:42.001Z,100702.27
2022-11-25T09:49:28.521Z,100706.38
2022-11-25T09:52:10.784Z,100705.91
2022-11-25T09:54:49.360Z,100707.36
2022-11-25T09:57:48.288Z,100710.59
2022-11-25T10:00:20.077Z,100711.27
2022-11-25T10:02:51.007Z,100711.13
2022-11-25T10:05:24.964Z,100707.98
2022-11-25T10:07:56.588Z,100710.48
2022-11-25T10:10:29.034Z,100710.70
2022-11-25T10:12:58.743Z,100706.66
2022-11-25T10:15:45.434Z,100710.08
2022-11-25T10:18:21.399Z,100707.80
2022-11-25T10:20:50.717Z,100713.16
2022-11-25T10:23:28.540Z,100712.95
2022-11-25T10:26:01.416Z,100715.20
2022-11-25T10:28:34.296Z,100716.20
2022-11-25T10:31:02.006Z,100721.36
2022-11-25T10:33:44.025Z,100724.19
2022-11-25T10:36:14.906Z,100722.42
2022-11-25T10:39:00.925Z,100724.67
2022-11-25T10:41:35.626Z,100721.56
2022-11-25T10:44:04.146Z,100725.55
2022-11-25T10:50:05.863Z,100725.10
2022-11-25T10:52:46.780Z,100727.75
2022-11-25T10:55:20.725Z,100726.41
2022-11-25T10:57:48.437Z,100727.35
2022-11-25T11:00:32.711Z,100723.42
2022-11-25T11:03:14.780Z,100728.34
2022-11-25T11:05:51.364Z,100729.08
2022-11-25T11:08:23.002Z,100733.05
2022-11-25T11:11:23.388Z,100732.52
2022-11-25T11:14:18.999Z,100734.44
2022-11-25T11:16:55.649Z,100732.45
2022-11-25T11:19:27.332Z,100727.52
2022-11-25T11:21:56.422Z,100729.33
2022-11-25T11:24:35.815Z,100730.27
2022-11-25T11:27:24.827Z,100730.99
2022-11-25T11:30:23.913Z,100733.40
2022-11-25T11:33:04.629Z,100732.96
2022-11-25T11:36:02.170Z,100734.95
2022-11-25T11:38:36.872Z,100734.16
2022-11-25T11:41:30.190Z,100739.14
2022-11-25T11:44:07.779Z,100735.70
2022-11-25T11:46:40.667Z,100738.02
2022-11-25T11:49:45.584Z,100733.86
2022-11-25T11:52:34.647Z,100736.73
2022-11-25T11:55:25.488Z,100735.83
2022-11-25T11:58:11.411Z,100740.48
2022-11-25T12:01:05.626Z,100735.51
2022-11-25T12:03:41.976Z,100735.76
2022-11-25T12:06:12.055Z,100736.58
2022-11-25T12:08:52.736Z,100735.63
2022-11-25T12:11:25.403Z,100731.52
2022-11-25T12:14:05.731Z,100734.08
2022-11-25T12:16:40.877Z,100732.55
2022-11-25T12:19:20.651Z,100736.29
2022-11-25T12:28:55.254Z,100737.06
2022-11-25T12:31:44.248Z,100739.03
2022-11-25T12:34:32.177Z,100743.40
2022-11-25T12:37:15.384Z,100744.61
2022-11-25T12:39:57.075Z,100745.97
2022-11-25T12:42:26.335Z,100746.08
2022-11-25T12:45:11.278Z,100746.51
2022-11-25T12:47:41.567Z,100746.84
2022-11-25T12:50:17.031Z,100749.84
2022-11-25T12:52:50.746Z,100747.61
2022-11-25T12:55:21.710Z,100743.59
2022-11-25T12:58:08.360Z,100749.89
2022-11-25T13:00:54.683Z,100753.13
2022-11-25T13:03:44.215Z,100749.37
2022-11-25T13:06:38.768Z,100750.89
2022-11-25T13:09:31.451Z,100748.10
2022-11-25T13:12:18.003Z,100746.80
2022-11-25T13:15:19.237Z,100746.51
2022-11-25T13:17:50.464Z,100749.52
2022-11-25T13:20:27.369Z,100748.05
2022-11-25T13:26:36.199Z,100747.91
2022-11-25T13:29:27.008Z,100752.44
2022-11-25T13:32:05.159Z,100748.59
2022-11-25T13:34:35.529Z,100755.23
2022-11-25T13:37:40.656Z,100755.19
2022-11-25T13:40:41.121Z,100756.20
2022-11-25T13:43:21.487Z,100758.21
2022-11-25T13:45:49.851Z,100761.03
2022-11-25T13:48:24.843Z,100758.62
2022-11-25T13:51:22.338Z,100758.29
2022-11-25T13:53:54.628Z,100759.33
2022-11-25T13:56:30.755Z,100759.41
2022-11-25T13:59:19.862Z,100760.21
2022-11-25T14:01:47.686Z,100765.71
2022-11-25T14:04:16.719Z,100765.41
2022-11-25T14:06:52.599Z,100765.58
2022-11-25T14:09:26.098Z,100769.80
2022-11-25T14:12:02.927Z,100770.95
2022-11-25T14:14:46.578Z,100776.31
2022-11-25T14:17:42.134Z,100774.83
2022-11-25T14:20:39.096Z,100776.14
2022-11-25T14:23:24.558Z,100775.15
2022-11-25T14:25:57.758Z,100776.33
2022-11-25T14:28:44.449Z,100775.90
2022-11-25T14:31:17.763Z,100781.70
2022-11-25T14:33:51.742Z,100781.35
2022-11-25T14:36:24.806Z,100782.27
2022-11-25T14:38:59.882Z,100782.73
2022-11-25T14:41:44.190Z,100786.33
2022-11-25T14:44:21.722Z,100788.56
2022-11-25T14:46:54.644Z,100785.79
2022-11-25T14:49:45.180Z,100793.20
2022-11-25T14:52:15.683Z,100791.91
2022-11-25T14:54:44.626Z,100794.76
2022-11-25T14:57:12.780Z,100789.83
2022-11-25T14:59:45.170Z,100790.31
2022-11-25T15:02:31.468Z,100791.34
2022-11-25T15:05:19.541Z,100793.26
2022-11-25T15:08:13.258Z,100797.73
2022-11-25T15:10:53.983Z,100797.83
2022-11-25T15:13:37.711Z,100804.17
2022-11-25T15:16:11.438Z,100805.44
2022-11-25T15:19:04.001Z,100805.02
2022-11-25T15:21:48.299Z,100804.71
2022-11-25T15:27:55.761Z,100807.94
2022-11-25T15:30:27.040Z,100809.52
2022-11-25T15:32:55.886Z,100808.23
2022-11-25T15:35:26.221Z,100806.68
2022-11-25T15:37:56.611Z,100809.29
2022-11-25T15:40:40.687Z,100810.50
2022-11-25T15:43:23.491Z,100812.39
2022-11-25T15:45:57.539Z,100815.65
2022-11-25T15:48:31.146Z,100815.19
2022-11-25T15:51:05.593Z,100812.09
2022-11-25T15:53:37.047Z,100813.95
2022-11-25T15:56:07.323Z,100812.46
2022-11-25T15:58:35.314Z,100811.00
2022-11-25T16:01:06.192Z,100814.91
2022-11-25T16:03:35.531Z,100818.32
2022-11-25T16:06:19.848Z,100819.45
2022-11-25T16:08:58.719Z,100819.06
2022-11-25T16:11:33.753Z,100819.99
2022-11-25T16:14:34.651Z,100816.21
2022-11-25T16:17:09.606Z,100818.00
2022-11-25T16:19:44.403Z,100814.45
2022-11-25T16:22:16.268Z,100819.34
2022-11-25T16:24:57.312Z,100820.29
2022-11-25T16:27:29.396Z,100823.52
2022-11-25T16:30:06.450Z,100829.73
2022-11-25T16:32:34.618Z,100834.41
2022-11-25T16:35:18.251Z,100833.91
2022-11-25T16:37:49.228Z,100836.71
2022-11-25T16:40:18.707Z,100836.23
2022-11-25T16:42:48.373Z,100832.98
2022-11-25T16:45:26.396Z,100832.13
2022-11-25T16:47:55.234Z,100831.17
2022-11-25T16:50:23.820Z,100833.95
2022-11-25T16:52:51.558Z,100833.73
2022-11-25T16:55:19.279Z,100833.45
2022-11-25T16:57:47.152Z,100834.60
2022-11-25T17:00:17.149Z,100834.83
2022-11-25T17:02:45.357Z,100840.16
2022-11-25T17:05:19.271Z,100837.67
2022-11-25T17:07:47.925Z,100836.98
2022-11-25T17:10:16.458Z,100837.04
2022-11-25T17:12:45.363Z,100836.43
2022-11-25T17:15:19.955Z,100837.25
2022-11-25T17:17:49.136Z,100834.02
2022-11-25T17:20:21.697Z,100832.73
2022-11-25T17:22:49.959Z,100833.66
2022-11-25T17:25:18.142Z,100838.84
2022-11-25T17:27:46.263Z,100838.74
2022-11-25T17:30:27.346Z,100838.91
2022-11-25T17:33:03.651Z,100837.86
2022-11-25T17:35:31.664Z,100846.66
2022-11-25T17:38:01.022Z,100845.16
2022-11-25T17:40:28.884Z,100848.88
2022-11-25T17:42:57.154Z,100849.58
2022-11-25T17:45:25.004Z,100849.95
2022-11-25T17:47:52.747Z,100850.60
2022-11-25T17:50:23.068Z,100853.96
2022-11-25T17:52:51.473Z,100852.70
2022-11-25T17:55:21.968Z,100851.85
2022-11-25T17:57:49.896Z,100854.86
2022-11-25T18:00:21.415Z,100856.92
2022-11-25T18:02:49.720Z,100857.59
2022-11-25T18:05:20.346Z,100858.14
2022-11-25T18:07:49.171Z,100865.48
2022-11-25T18:10:19.872Z,100862.19
2022-11-25T18:12:49.824Z,100859.59
2022-11-25T18:15:22.467Z,100863.17
2022-11-25T18:17:53.536Z,100861.77
2022-11-25T18:20:26.228Z,100860.66
2022-11-25T18:22:54.190Z,100864.77
2022-11-25T18:25:29.293Z,100869.10
2022-11-25T18:27:58.090Z,100866.69
2022-11-25T18:30:31.085Z,100869.16
2022-11-25T18:33:00.759Z,100869.98
2022-11-25T18:35:35.810Z,100870.60
2022-11-25T18:38:05.188Z,100872.58
2022-11-25T18:40:35.126Z,100875.39
2022-11-25T18:43:04.670Z,100870.48
2022-11-25T18:45:37.683Z,100874.95
2022-11-25T18:48:16.158Z,100878.08
2022-11-25T18:50:45.106Z,100878.93
2022-11-25T18:53:13.477Z,100882.61
2022-11-25T18:55:41.975Z,100883.60
2022-11-25T18:58:17.207Z,100880.69
2022-11-25T19:00:50.171Z,100879.71
2022-11-25T19:03:23.473Z,100878.51
2022-11-25T19:05:54.184Z,100876.61
2022-11-25T19:08:21.929Z,100878.65
2022-11-25T19:10:50.791Z,100883.54
2022-11-25T19:13:31.768Z,100884.48
2022-11-25T19:16:06.397Z,100890.20
2022-11-25T19:18:35.201Z,100892.09
2022-11-25T19:21:03.294Z,100894.91
2022-11-25T19:27:01.974Z,100890.17
2022-11-25T19:29:29.624Z,100890.88
2022-11-25T19:31:58.431Z,100894.73
2022-11-25T19:34:38.533Z,100893.08
2022-11-25T19:37:06.443Z,100901.15
2022-11-25T19:39:36.390Z,100901.24
2022-11-25T19:42:04.154Z,100907.27
2022-11-25T19:44:31.919Z,100905.11
2022-11-25T19:47:14.720Z,100909.58
2022-11-25T19:49:44.103Z,100911.09
2022-11-25T19:52:18.024Z,100912.08
2022-11-25T19:54:48.373Z,100918.77
2022-11-25T19:57:22.132Z,100922.52
2022-11-25T19:59:50.150Z,100923.21
2022-11-25T20:02:22.837Z,100929.04
2022-11-25T20:04:54.333Z,100929.61
2022-11-25T20:07:22.301Z,100931.24
2022-11-25T20:09:51.566Z,100935.14
2022-11-25T20:12:20.158Z,100936.02
2022-11-25T20:14:48.835Z,100938.02
2022-11-25T20:17:32.790Z,100939.58
2022-11-25T20:20:11.642Z,100940.36
2022-11-25T20:22:44.265Z,100941.44
2022-11-25T20:25:14.797Z,100937.88
2022-11-25T20:27:42.617Z,100944.63
2022-11-25T20:30:17.171Z,100949.21
2022-11-25T20:32:44.964Z,100952.88
2022-11-25T20:35:13.382Z,100952.56
2022-11-25T20:37:53.832Z,100951.24
2022-11-25T20:40:42.124Z,100953.55
2022-11-25T20:43:47.422Z,100954.25
2022-11-25T20:46:23.914Z,100953.21
2022-11-25T20:48:54.509Z,100953.56
2022-11-25T20:51:23.817Z,100955.27
2022-11-25T20:54:03.329Z,100954.25
2022-11-25T20:56:31.038Z,100956.15
2022-11-25T20:58:58.728Z,100957.20
2022-11-25T21:01:26.704Z,100959.91
2022-11-25T21:03:54.580Z,100958.79
2022-11-25T21:06:25.675Z,100962.45
2022-11-25T21:08:55.648Z,100963.05
2022-11-25T21:11:23.434Z,100962.65
2022-11-25T21:13:52.172Z,100963.75
2022-11-25T21:16:20.212Z,100961.29
2022-11-25T21:18:48.017Z,100959.14
2022-11-25T21:21:28.716Z,100959.49
2022-11-25T21:23:56.853Z,100958.39
2022-11-25T21:26:26.581Z,100955.04
2022-11-25T21:28:54.748Z,100958.05
2022-11-25T21:31:24.789Z,100959.40
2022-11-25T21:33:57.610Z,100958.95
2022-11-25T21:36:31.224Z,100961.96
2022-11-25T21:39:09.089Z,100969.27
2022-11-25T21:41:36.931Z,100968.00
2022-11-25T21:44:06.261Z,100968.06
2022-11-25T21:46:34.186Z,100973.21
2022-11-25T21:49:02.124Z,100973.91
2022-11-25T21:51:29.849Z,100976.73
2022-11-25T21:53:57.502Z,100974.06
2022-11-25T21:56:32.082Z,100978.66
2022-11-25T21:59:01.578Z,100981.20
2022-11-25T22:01:29.859Z,100980.15
2022-11-25T22:03:58.122Z,100979.77
2022-11-25T22:06:29.138Z,100985.30
2022-11-25T22:08:57.442Z,100983.41
2022-11-25T22:11:33.715Z,100985.63
2022-11-25T22:14:06.614Z,100989.00
2022-11-25T22:16:36.663Z,100988.00
2022-11-25T22:19:04.541Z,100985.14
2022-11-25T22:21:32.408Z,100985.22
2022-11-25T22:24:00.162Z,100992.61
2022-11-25T22:26:32.763Z,100992.45
2022-11-25T22:29:01.917Z,100996.41
2022-11-25T22:31:29.712Z,100994.05
2022-11-25T22:33:57.736Z,100998.17
2022-11-25T22:36:28.300Z,101004.80
2022-11-25T22:38:58.987Z,101007.14
2022-11-25T22:41:27.114Z,101014.36
2022-11-25T22:43:54.941Z,101011.18
2022-11-25T22:46:22.791Z,101021.70
2022-11-25T22:48:50.603Z,101020.20
2022-11-25T22:51:24.801Z,101027.27
2022-11-25T22:53:52.640Z,101030.24
2022-11-25T22:56:20.478Z,101029.30
2022-11-25T22:58:48.677Z,101031.31
2022-11-25T23:01:17.202Z,101026.75
2022-11-25T23:03:45.187Z,101026.86
2022-11-25T23:06:13.911Z,101025.48
2022-11-25T23:08:41.778Z,101026.52
2022-11-25T23:11:17.378Z,101029.10
2022-11-25T23:13:45.138Z,101023.86
2022-11-25T23:16:12.867Z,101024.58
2022-11-25T23:18:44.784Z,101027.20
2022-11-25T23:21:21.394Z,101027.43
2022-11-25T23:23:50.260Z,101031.81
2022-11-25T23:26:18.153Z,101033.64
2022-11-25T23:28:45.877Z,101034.29
2022-11-25T23:31:15.371Z,101033.66
2022-11-25T23:33:48.506Z,101035.10
2022-11-25T23:36:47.364Z,101035.25
2022-11-25T23:39:20.095Z,101036.92
2022-11-25T23:41:48.856Z,101036.85
2022-11-25T23:44:28.627Z,101040.50
2022-11-25T23:47:04.271Z,101042.09
2022-11-25T23:49:44.102Z,101042.35
2022-11-25T23:52:23.097Z,101040.78
2022-11-25T23:54:52.401Z,101042.48
2022-11-25T23:57:26.827Z,101038.42
2022-11-25T23:59:54.732Z,101037.78
